sensor_id;sensor_type;location;lat;lon;timestamp;P1;durP1;ratioP1;P2;durP2;ratioP2
80836;SDS011;70251;60.008;30.404;2023-07-02T00:01:48;4.75;;;1.15;;
80836;SDS011;70251;60.008;30.404;2023-07-02T00:04:14;6.85;;;1.13;;
80836;SDS011;70251;60.008;30.404;2023-07-02T00:06:45;4.53;;;1.13;;
80836;SDS011;70251;60.008;30.404;2023-07-02T00:09:12;7.17;;;1.63;;
80836;SDS011;70251;60.008;30.404;2023-07-02T00:11:38;6.60;;;1.15;;
80836;SDS011;70251;60.008;30.404;2023-07-02T00:14:08;5.22;;;1.15;;
80836;SDS011;70251;60.008;30.404;2023-07-02T00:16:35;5.20;;;1.27;;
80836;SDS011;70251;60.008;30.404;2023-07-02T00:19:02;7.20;;;1.48;;
80836;SDS011;70251;60.008;30.404;2023-07-02T00:21:28;4.53;;;1.30;;
80836;SDS011;70251;60.008;30.404;2023-07-02T00:23:54;4.80;;;1.15;;
80836;SDS011;70251;60.008;30.404;2023-07-02T00:26:22;5.17;;;1.10;;
80836;SDS011;70251;60.008;30.404;2023-07-02T00:28:50;5.80;;;1.13;;
80836;SDS011;70251;60.008;30.404;2023-07-02T00:31:19;5.78;;;1.17;;
80836;SDS011;70251;60.008;30.404;2023-07-02T00:33:45;4.85;;;1.13;;
80836;SDS011;70251;60.008;30.404;2023-07-02T00:36:10;5.03;;;1.20;;
80836;SDS011;70251;60.008;30.404;2023-07-02T00:38:44;5.03;;;1.20;;
80836;SDS011;70251;60.008;30.404;2023-07-02T00:41:11;4.93;;;1.40;;
80836;SDS011;70251;60.008;30.404;2023-07-02T00:43:42;5.47;;;1.30;;
80836;SDS011;70251;60.008;30.404;2023-07-02T00:46:14;5.47;;;1.47;;
80836;SDS011;70251;60.008;30.404;2023-07-02T00:48:46;4.95;;;1.17;;
80836;SDS011;70251;60.008;30.404;2023-07-02T00:51:34;5.10;;;1.40;;
80836;SDS011;70251;60.008;30.404;2023-07-02T00:53:59;5.68;;;1.38;;
80836;SDS011;70251;60.008;30.404;2023-07-02T00:56:25;5.17;;;1.30;;
80836;SDS011;70251;60.008;30.404;2023-07-02T00:58:52;6.15;;;1.65;;
80836;SDS011;70251;60.008;30.404;2023-07-02T01:01:23;5.45;;;1.27;;
80836;SDS011;70251;60.008;30.404;2023-07-02T01:04:04;6.68;;;1.33;;
80836;SDS011;70251;60.008;30.404;2023-07-02T01:06:33;6.13;;;1.30;;
80836;SDS011;70251;60.008;30.404;2023-07-02T01:09:02;6.43;;;1.50;;
80836;SDS011;70251;60.008;30.404;2023-07-02T01:11:40;4.57;;;1.30;;
80836;SDS011;70251;60.008;30.404;2023-07-02T01:14:22;5.63;;;1.50;;
80836;SDS011;70251;60.008;30.404;2023-07-02T01:16:55;6.65;;;1.38;;
80836;SDS011;70251;60.008;30.404;2023-07-02T01:19:42;7.05;;;1.60;;
80836;SDS011;70251;60.008;30.404;2023-07-02T01:22:11;5.00;;;1.50;;
80836;SDS011;70251;60.008;30.404;2023-07-02T01:24:40;4.78;;;1.45;;
80836;SDS011;70251;60.008;30.404;2023-07-02T01:27:06;6.47;;;1.30;;
80836;SDS011;70251;60.008;30.404;2023-07-02T01:29:32;7.55;;;1.55;;
80836;SDS011;70251;60.008;30.404;2023-07-02T01:32:02;6.68;;;1.70;;
80836;SDS011;70251;60.008;30.404;2023-07-02T01:34:28;5.30;;;1.60;;
80836;SDS011;70251;60.008;30.404;2023-07-02T01:36:54;6.18;;;1.52;;
80836;SDS011;70251;60.008;30.404;2023-07-02T01:39:19;7.03;;;1.70;;
80836;SDS011;70251;60.008;30.404;2023-07-02T01:41:49;5.13;;;1.40;;
80836;SDS011;70251;60.008;30.404;2023-07-02T01:44:19;7.83;;;2.10;;
80836;SDS011;70251;60.008;30.404;2023-07-02T01:46:45;7.07;;;1.52;;
80836;SDS011;70251;60.008;30.404;2023-07-02T01:49:18;6.10;;;1.52;;
80836;SDS011;70251;60.008;30.404;2023-07-02T01:51:45;7.40;;;1.70;;
80836;SDS011;70251;60.008;30.404;2023-07-02T01:54:14;6.25;;;1.23;;
80836;SDS011;70251;60.008;30.404;2023-07-02T01:56:40;5.27;;;1.37;;
80836;SDS011;70251;60.008;30.404;2023-07-02T01:59:05;4.50;;;1.53;;
80836;SDS011;70251;60.008;30.404;2023-07-02T02:01:31;5.57;;;1.67;;
80836;SDS011;70251;60.008;30.404;2023-07-02T02:03:58;4.63;;;1.63;;
80836;SDS011;70251;60.008;30.404;2023-07-02T02:06:23;6.20;;;1.60;;
80836;SDS011;70251;60.008;30.404;2023-07-02T02:08:49;5.80;;;1.70;;
80836;SDS011;70251;60.008;30.404;2023-07-02T02:11:17;6.53;;;2.00;;
80836;SDS011;70251;60.008;30.404;2023-07-02T02:13:45;4.85;;;1.40;;
80836;SDS011;70251;60.008;30.404;2023-07-02T02:16:11;8.05;;;1.80;;
80836;SDS011;70251;60.008;30.404;2023-07-02T02:18:37;8.57;;;1.93;;
80836;SDS011;70251;60.008;30.404;2023-07-02T02:21:05;6.15;;;1.45;;
80836;SDS011;70251;60.008;30.404;2023-07-02T02:23:31;5.33;;;1.30;;
80836;SDS011;70251;60.008;30.404;2023-07-02T02:25:56;5.72;;;1.33;;
80836;SDS011;70251;60.008;30.404;2023-07-02T02:28:22;4.37;;;1.20;;
80836;SDS011;70251;60.008;30.404;2023-07-02T02:30:47;5.73;;;1.20;;
80836;SDS011;70251;60.008;30.404;2023-07-02T02:33:13;5.50;;;1.40;;
80836;SDS011;70251;60.008;30.404;2023-07-02T02:35:38;4.10;;;1.10;;
80836;SDS011;70251;60.008;30.404;2023-07-02T02:38:04;6.67;;;1.40;;
80836;SDS011;70251;60.008;30.404;2023-07-02T02:40:30;6.25;;;1.50;;
80836;SDS011;70251;60.008;30.404;2023-07-02T02:42:57;5.82;;;1.58;;
80836;SDS011;70251;60.008;30.404;2023-07-02T02:45:22;5.37;;;1.30;;
80836;SDS011;70251;60.008;30.404;2023-07-02T02:47:48;7.50;;;1.60;;
80836;SDS011;70251;60.008;30.404;2023-07-02T02:50:13;5.47;;;1.38;;
80836;SDS011;70251;60.008;30.404;2023-07-02T02:52:39;5.17;;;1.30;;
80836;SDS011;70251;60.008;30.404;2023-07-02T02:55:05;5.60;;;1.60;;
80836;SDS011;70251;60.008;30.404;2023-07-02T02:57:32;7.20;;;1.48;;
80836;SDS011;70251;60.008;30.404;2023-07-02T02:59:58;4.47;;;1.03;;
80836;SDS011;70251;60.008;30.404;2023-07-02T03:02:24;5.43;;;1.40;;
80836;SDS011;70251;60.008;30.404;2023-07-02T03:04:50;4.65;;;1.40;;
80836;SDS011;70251;60.008;30.404;2023-07-02T03:07:15;7.80;;;2.17;;
80836;SDS011;70251;60.008;30.404;2023-07-02T03:09:42;6.20;;;1.90;;
80836;SDS011;70251;60.008;30.404;2023-07-02T03:12:07;6.87;;;1.60;;
80836;SDS011;70251;60.008;30.404;2023-07-02T03:14:33;5.70;;;1.60;;
80836;SDS011;70251;60.008;30.404;2023-07-02T03:16:59;5.75;;;1.90;;
80836;SDS011;70251;60.008;30.404;2023-07-02T03:19:25;4.90;;;1.53;;
80836;SDS011;70251;60.008;30.404;2023-07-02T03:21:50;6.70;;;1.90;;
80836;SDS011;70251;60.008;30.404;2023-07-02T03:24:16;6.37;;;1.77;;
80836;SDS011;70251;60.008;30.404;2023-07-02T03:26:42;7.07;;;1.67;;
80836;SDS011;70251;60.008;30.404;2023-07-02T03:29:08;5.65;;;1.70;;
80836;SDS011;70251;60.008;30.404;2023-07-02T03:31:33;6.57;;;1.90;;
80836;SDS011;70251;60.008;30.404;2023-07-02T03:34:03;5.82;;;1.85;;
80836;SDS011;70251;60.008;30.404;2023-07-02T03:36:40;8.25;;;2.47;;
80836;SDS011;70251;60.008;30.404;2023-07-02T03:39:09;6.80;;;1.80;;
80836;SDS011;70251;60.008;30.404;2023-07-02T03:41:37;7.75;;;1.95;;
80836;SDS011;70251;60.008;30.404;2023-07-02T03:44:03;6.72;;;1.60;;
80836;SDS011;70251;60.008;30.404;2023-07-02T03:46:29;8.57;;;1.57;;
80836;SDS011;70251;60.008;30.404;2023-07-02T03:48:56;5.60;;;1.88;;
80836;SDS011;70251;60.008;30.404;2023-07-02T03:51:22;7.60;;;1.65;;
80836;SDS011;70251;60.008;30.404;2023-07-02T03:53:47;6.33;;;1.87;;
80836;SDS011;70251;60.008;30.404;2023-07-02T03:56:13;5.78;;;1.65;;
80836;SDS011;70251;60.008;30.404;2023-07-02T03:58:41;8.37;;;1.80;;
80836;SDS011;70251;60.008;30.404;2023-07-02T04:01:07;4.63;;;1.45;;
80836;SDS011;70251;60.008;30.404;2023-07-02T04:03:33;5.57;;;1.77;;
80836;SDS011;70251;60.008;30.404;2023-07-02T04:05:59;6.83;;;2.00;;
80836;SDS011;70251;60.008;30.404;2023-07-02T04:08:24;5.30;;;1.60;;
80836;SDS011;70251;60.008;30.404;2023-07-02T04:10:50;9.05;;;1.83;;
80836;SDS011;70251;60.008;30.404;2023-07-02T04:13:16;6.53;;;2.00;;
80836;SDS011;70251;60.008;30.404;2023-07-02T04:15:42;5.30;;;1.80;;
80836;SDS011;70251;60.008;30.404;2023-07-02T04:18:07;5.75;;;2.00;;
80836;SDS011;70251;60.008;30.404;2023-07-02T04:20:33;7.17;;;2.07;;
80836;SDS011;70251;60.008;30.404;2023-07-02T04:22:59;6.28;;;2.10;;
80836;SDS011;70251;60.008;30.404;2023-07-02T04:25:28;5.70;;;2.13;;
80836;SDS011;70251;60.008;30.404;2023-07-02T04:27:54;10.45;;;2.25;;
80836;SDS011;70251;60.008;30.404;2023-07-02T04:30:27;7.65;;;1.83;;
80836;SDS011;70251;60.008;30.404;2023-07-02T04:33:04;10.52;;;1.83;;
80836;SDS011;70251;60.008;30.404;2023-07-02T04:35:31;7.25;;;1.80;;
80836;SDS011;70251;60.008;30.404;2023-07-02T04:37:57;9.73;;;2.10;;
80836;SDS011;70251;60.008;30.404;2023-07-02T04:40:23;6.43;;;1.60;;
80836;SDS011;70251;60.008;30.404;2023-07-02T04:42:48;8.30;;;1.90;;
80836;SDS011;70251;60.008;30.404;2023-07-02T04:45:14;7.97;;;2.25;;
80836;SDS011;70251;60.008;30.404;2023-07-02T04:47:42;7.65;;;2.10;;
80836;SDS011;70251;60.008;30.404;2023-07-02T04:50:08;6.40;;;2.20;;
80836;SDS011;70251;60.008;30.404;2023-07-02T04:52:34;7.68;;;2.33;;
80836;SDS011;70251;60.008;30.404;2023-07-02T04:55:02;7.30;;;2.10;;
80836;SDS011;70251;60.008;30.404;2023-07-02T04:57:29;6.85;;;2.20;;
80836;SDS011;70251;60.008;30.404;2023-07-02T04:59:55;8.47;;;2.10;;
80836;SDS011;70251;60.008;30.404;2023-07-02T05:02:20;7.13;;;2.08;;
80836;SDS011;70251;60.008;30.404;2023-07-02T05:04:46;7.10;;;2.30;;
80836;SDS011;70251;60.008;30.404;2023-07-02T05:07:11;7.03;;;2.40;;
80836;SDS011;70251;60.008;30.404;2023-07-02T05:09:37;8.53;;;2.50;;
80836;SDS011;70251;60.008;30.404;2023-07-02T05:12:02;5.73;;;2.03;;
80836;SDS011;70251;60.008;30.404;2023-07-02T05:14:28;7.10;;;2.17;;
80836;SDS011;70251;60.008;30.404;2023-07-02T05:16:54;6.82;;;1.92;;
80836;SDS011;70251;60.008;30.404;2023-07-02T05:19:19;7.03;;;1.97;;
80836;SDS011;70251;60.008;30.404;2023-07-02T05:21:47;9.32;;;1.92;;
80836;SDS011;70251;60.008;30.404;2023-07-02T05:24:12;5.67;;;1.90;;
80836;SDS011;70251;60.008;30.404;2023-07-02T05:26:38;5.77;;;2.00;;
80836;SDS011;70251;60.008;30.404;2023-07-02T05:29:04;5.28;;;1.70;;
80836;SDS011;70251;60.008;30.404;2023-07-02T05:31:30;5.60;;;2.20;;
80836;SDS011;70251;60.008;30.404;2023-07-02T05:33:56;6.50;;;1.73;;
80836;SDS011;70251;60.008;30.404;2023-07-02T05:36:22;6.00;;;2.03;;
80836;SDS011;70251;60.008;30.404;2023-07-02T05:38:48;5.70;;;2.13;;
80836;SDS011;70251;60.008;30.404;2023-07-02T05:41:21;11.87;;;2.30;;
80836;SDS011;70251;60.008;30.404;2023-07-02T05:43:47;6.95;;;2.00;;
80836;SDS011;70251;60.008;30.404;2023-07-02T05:46:13;6.45;;;2.38;;
80836;SDS011;70251;60.008;30.404;2023-07-02T05:48:43;6.40;;;2.07;;
80836;SDS011;70251;60.008;30.404;2023-07-02T05:51:09;5.07;;;1.63;;
80836;SDS011;70251;60.008;30.404;2023-07-02T05:53:44;5.35;;;2.38;;
80836;SDS011;70251;60.008;30.404;2023-07-02T05:56:10;6.83;;;2.30;;
80836;SDS011;70251;60.008;30.404;2023-07-02T05:58:35;8.23;;;2.60;;
80836;SDS011;70251;60.008;30.404;2023-07-02T06:01:01;7.87;;;2.17;;
80836;SDS011;70251;60.008;30.404;2023-07-02T06:03:29;7.00;;;1.83;;
80836;SDS011;70251;60.008;30.404;2023-07-02T06:05:55;6.63;;;2.17;;
80836;SDS011;70251;60.008;30.404;2023-07-02T06:08:22;7.87;;;2.07;;
80836;SDS011;70251;60.008;30.404;2023-07-02T06:10:50;7.40;;;2.67;;
80836;SDS011;70251;60.008;30.404;2023-07-02T06:13:16;8.52;;;2.80;;
80836;SDS011;70251;60.008;30.404;2023-07-02T06:15:42;5.67;;;2.07;;
80836;SDS011;70251;60.008;30.404;2023-07-02T06:18:07;6.55;;;2.45;;
80836;SDS011;70251;60.008;30.404;2023-07-02T06:20:33;9.17;;;2.30;;
80836;SDS011;70251;60.008;30.404;2023-07-02T06:22:58;6.63;;;2.42;;
80836;SDS011;70251;60.008;30.404;2023-07-02T06:25:24;6.93;;;2.47;;
80836;SDS011;70251;60.008;30.404;2023-07-02T06:27:50;7.70;;;2.30;;
80836;SDS011;70251;60.008;30.404;2023-07-02T06:30:15;6.17;;;2.10;;
80836;SDS011;70251;60.008;30.404;2023-07-02T06:32:41;5.97;;;1.73;;
80836;SDS011;70251;60.008;30.404;2023-07-02T06:35:07;6.82;;;2.47;;
80836;SDS011;70251;60.008;30.404;2023-07-02T06:37:32;6.72;;;1.92;;
80836;SDS011;70251;60.008;30.404;2023-07-02T06:39:58;6.97;;;2.67;;
80836;SDS011;70251;60.008;30.404;2023-07-02T06:42:24;6.00;;;2.15;;
80836;SDS011;70251;60.008;30.404;2023-07-02T06:44:50;6.90;;;1.92;;
80836;SDS011;70251;60.008;30.404;2023-07-02T06:47:16;5.80;;;2.00;;
80836;SDS011;70251;60.008;30.404;2023-07-02T06:49:42;5.53;;;2.17;;
80836;SDS011;70251;60.008;30.404;2023-07-02T06:52:08;6.43;;;2.67;;
80836;SDS011;70251;60.008;30.404;2023-07-02T06:54:33;5.55;;;2.00;;
80836;SDS011;70251;60.008;30.404;2023-07-02T06:57:00;5.05;;;1.85;;
80836;SDS011;70251;60.008;30.404;2023-07-02T06:59:25;6.30;;;1.93;;
80836;SDS011;70251;60.008;30.404;2023-07-02T07:01:52;7.38;;;2.60;;
80836;SDS011;70251;60.008;30.404;2023-07-02T07:04:21;6.93;;;2.55;;
80836;SDS011;70251;60.008;30.404;2023-07-02T07:06:46;6.17;;;1.97;;
80836;SDS011;70251;60.008;30.404;2023-07-02T07:09:12;5.18;;;2.08;;
80836;SDS011;70251;60.008;30.404;2023-07-02T07:11:38;4.80;;;1.90;;
80836;SDS011;70251;60.008;30.404;2023-07-02T07:14:06;6.57;;;1.90;;
80836;SDS011;70251;60.008;30.404;2023-07-02T07:16:33;4.90;;;1.65;;
80836;SDS011;70251;60.008;30.404;2023-07-02T07:19:01;5.43;;;1.70;;
80836;SDS011;70251;60.008;30.404;2023-07-02T07:21:27;4.47;;;1.30;;
80836;SDS011;70251;60.008;30.404;2023-07-02T07:23:52;5.77;;;1.40;;
80836;SDS011;70251;60.008;30.404;2023-07-02T07:26:18;7.47;;;1.80;;
80836;SDS011;70251;60.008;30.404;2023-07-02T07:28:43;5.53;;;1.60;;
80836;SDS011;70251;60.008;30.404;2023-07-02T07:31:09;5.37;;;1.60;;
80836;SDS011;70251;60.008;30.404;2023-07-02T07:33:34;6.57;;;1.80;;
80836;SDS011;70251;60.008;30.404;2023-07-02T07:36:01;5.60;;;1.65;;
80836;SDS011;70251;60.008;30.404;2023-07-02T07:38:26;7.75;;;2.05;;
80836;SDS011;70251;60.008;30.404;2023-07-02T07:40:52;4.73;;;1.60;;
80836;SDS011;70251;60.008;30.404;2023-07-02T07:43:17;6.13;;;1.90;;
80836;SDS011;70251;60.008;30.404;2023-07-02T07:45:43;5.53;;;2.10;;
80836;SDS011;70251;60.008;30.404;2023-07-02T07:48:08;6.17;;;2.20;;
80836;SDS011;70251;60.008;30.404;2023-07-02T07:50:34;7.17;;;2.30;;
80836;SDS011;70251;60.008;30.404;2023-07-02T07:52:59;7.38;;;2.03;;
80836;SDS011;70251;60.008;30.404;2023-07-02T07:55:25;6.53;;;2.30;;
80836;SDS011;70251;60.008;30.404;2023-07-02T07:57:51;6.37;;;2.23;;
80836;SDS011;70251;60.008;30.404;2023-07-02T08:00:16;7.50;;;2.25;;
80836;SDS011;70251;60.008;30.404;2023-07-02T08:02:47;6.32;;;2.25;;
80836;SDS011;70251;60.008;30.404;2023-07-02T08:05:12;7.27;;;2.00;;
80836;SDS011;70251;60.008;30.404;2023-07-02T08:07:38;5.93;;;2.00;;
80836;SDS011;70251;60.008;30.404;2023-07-02T08:10:06;6.07;;;2.45;;
80836;SDS011;70251;60.008;30.404;2023-07-02T08:12:34;6.37;;;2.30;;
80836;SDS011;70251;60.008;30.404;2023-07-02T08:15:00;7.25;;;2.15;;
80836;SDS011;70251;60.008;30.404;2023-07-02T08:17:25;6.03;;;2.38;;
80836;SDS011;70251;60.008;30.404;2023-07-02T08:19:51;5.30;;;2.37;;
80836;SDS011;70251;60.008;30.404;2023-07-02T08:22:17;7.53;;;2.05;;
80836;SDS011;70251;60.008;30.404;2023-07-02T08:24:43;10.30;;;2.65;;
80836;SDS011;70251;60.008;30.404;2023-07-02T08:27:08;7.50;;;2.50;;
80836;SDS011;70251;60.008;30.404;2023-07-02T08:29:35;7.15;;;2.20;;
80836;SDS011;70251;60.008;30.404;2023-07-02T08:32:01;6.20;;;2.20;;
80836;SDS011;70251;60.008;30.404;2023-07-02T08:34:32;6.05;;;2.20;;
80836;SDS011;70251;60.008;30.404;2023-07-02T08:36:57;5.90;;;2.17;;
80836;SDS011;70251;60.008;30.404;2023-07-02T08:39:26;6.30;;;2.33;;
80836;SDS011;70251;60.008;30.404;2023-07-02T08:41:51;5.35;;;2.10;;
80836;SDS011;70251;60.008;30.404;2023-07-02T08:44:19;6.05;;;2.30;;
80836;SDS011;70251;60.008;30.404;2023-07-02T08:46:50;6.33;;;2.43;;
80836;SDS011;70251;60.008;30.404;2023-07-02T08:49:16;5.80;;;2.58;;
80836;SDS011;70251;60.008;30.404;2023-07-02T08:51:46;4.32;;;2.13;;
80836;SDS011;70251;60.008;30.404;2023-07-02T08:54:12;7.60;;;1.92;;
80836;SDS011;70251;60.008;30.404;2023-07-02T08:56:38;8.33;;;2.50;;
80836;SDS011;70251;60.008;30.404;2023-07-02T08:59:08;5.22;;;2.10;;
80836;SDS011;70251;60.008;30.404;2023-07-02T09:01:50;7.20;;;2.10;;
80836;SDS011;70251;60.008;30.404;2023-07-02T09:04:20;6.13;;;2.10;;
80836;SDS011;70251;60.008;30.404;2023-07-02T09:07:02;6.40;;;2.30;;
80836;SDS011;70251;60.008;30.404;2023-07-02T09:09:44;6.28;;;2.20;;
80836;SDS011;70251;60.008;30.404;2023-07-02T09:12:21;5.40;;;2.50;;
80836;SDS011;70251;60.008;30.404;2023-07-02T09:14:53;6.68;;;2.00;;
80836;SDS011;70251;60.008;30.404;2023-07-02T09:17:26;6.32;;;1.98;;
80836;SDS011;70251;60.008;30.404;2023-07-02T09:19:53;6.87;;;2.40;;
80836;SDS011;70251;60.008;30.404;2023-07-02T09:22:19;7.68;;;2.20;;
80836;SDS011;70251;60.008;30.404;2023-07-02T09:24:51;6.10;;;2.20;;
80836;SDS011;70251;60.008;30.404;2023-07-02T09:27:21;5.72;;;2.10;;
80836;SDS011;70251;60.008;30.404;2023-07-02T09:29:50;6.50;;;2.28;;
80836;SDS011;70251;60.008;30.404;2023-07-02T09:32:33;6.15;;;2.58;;
80836;SDS011;70251;60.008;30.404;2023-07-02T09:34:58;5.23;;;2.30;;
80836;SDS011;70251;60.008;30.404;2023-07-02T09:37:24;6.43;;;2.60;;
80836;SDS011;70251;60.008;30.404;2023-07-02T09:39:50;5.22;;;1.90;;
80836;SDS011;70251;60.008;30.404;2023-07-02T09:42:20;5.28;;;2.20;;
80836;SDS011;70251;60.008;30.404;2023-07-02T09:44:51;5.80;;;2.25;;
80836;SDS011;70251;60.008;30.404;2023-07-02T09:47:18;6.45;;;2.45;;
80836;SDS011;70251;60.008;30.404;2023-07-02T09:49:52;6.47;;;2.63;;
80836;SDS011;70251;60.008;30.404;2023-07-02T09:52:19;5.68;;;2.33;;
80836;SDS011;70251;60.008;30.404;2023-07-02T09:54:45;5.97;;;2.22;;
80836;SDS011;70251;60.008;30.404;2023-07-02T09:57:11;5.60;;;2.20;;
80836;SDS011;70251;60.008;30.404;2023-07-02T09:59:37;4.90;;;1.80;;
80836;SDS011;70251;60.008;30.404;2023-07-02T10:02:04;6.72;;;2.30;;
80836;SDS011;70251;60.008;30.404;2023-07-02T10:04:39;6.03;;;2.28;;
80836;SDS011;70251;60.008;30.404;2023-07-02T10:07:06;6.57;;;2.50;;
80836;SDS011;70251;60.008;30.404;2023-07-02T10:09:36;6.18;;;2.10;;
80836;SDS011;70251;60.008;30.404;2023-07-02T10:14:44;5.43;;;2.37;;
80836;SDS011;70251;60.008;30.404;2023-07-02T10:17:10;5.40;;;2.15;;
80836;SDS011;70251;60.008;30.404;2023-07-02T10:19:54;6.68;;;2.33;;
80836;SDS011;70251;60.008;30.404;2023-07-02T10:22:21;6.07;;;2.30;;
80836;SDS011;70251;60.008;30.404;2023-07-02T10:24:54;6.57;;;2.17;;
80836;SDS011;70251;60.008;30.404;2023-07-02T10:27:32;7.38;;;2.40;;
80836;SDS011;70251;60.008;30.404;2023-07-02T10:30:03;5.70;;;2.30;;
80836;SDS011;70251;60.008;30.404;2023-07-02T10:32:31;5.20;;;1.92;;
80836;SDS011;70251;60.008;30.404;2023-07-02T10:34:59;5.32;;;1.70;;
80836;SDS011;70251;60.008;30.404;2023-07-02T10:37:36;6.47;;;2.40;;
80836;SDS011;70251;60.008;30.404;2023-07-02T10:40:08;5.95;;;1.92;;
80836;SDS011;70251;60.008;30.404;2023-07-02T10:42:47;5.60;;;1.98;;
80836;SDS011;70251;60.008;30.404;2023-07-02T10:45:17;6.25;;;2.10;;
80836;SDS011;70251;60.008;30.404;2023-07-02T10:47:43;5.45;;;1.90;;
80836;SDS011;70251;60.008;30.404;2023-07-02T10:50:16;4.23;;;1.40;;
80836;SDS011;70251;60.008;30.404;2023-07-02T10:52:48;6.22;;;1.98;;
80836;SDS011;70251;60.008;30.404;2023-07-02T10:55:19;5.32;;;1.60;;
80836;SDS011;70251;60.008;30.404;2023-07-02T10:57:45;6.60;;;1.85;;
80836;SDS011;70251;60.008;30.404;2023-07-02T11:00:11;5.17;;;1.83;;
80836;SDS011;70251;60.008;30.404;2023-07-02T11:02:37;4.13;;;1.58;;
80836;SDS011;70251;60.008;30.404;2023-07-02T11:05:04;4.80;;;1.67;;
80836;SDS011;70251;60.008;30.404;2023-07-02T11:07:32;5.82;;;1.48;;
80836;SDS011;70251;60.008;30.404;2023-07-02T11:10:01;7.13;;;2.25;;
80836;SDS011;70251;60.008;30.404;2023-07-02T11:12:27;5.03;;;1.40;;
80836;SDS011;70251;60.008;30.404;2023-07-02T11:15:06;6.03;;;1.73;;
80836;SDS011;70251;60.008;30.404;2023-07-02T11:17:33;8.00;;;2.03;;
80836;SDS011;70251;60.008;30.404;2023-07-02T11:19:58;5.97;;;2.00;;
80836;SDS011;70251;60.008;30.404;2023-07-02T11:22:30;7.40;;;1.98;;
80836;SDS011;70251;60.008;30.404;2023-07-02T11:25:07;4.90;;;1.52;;
80836;SDS011;70251;60.008;30.404;2023-07-02T11:27:45;5.70;;;1.90;;
80836;SDS011;70251;60.008;30.404;2023-07-02T11:30:11;5.40;;;1.80;;
80836;SDS011;70251;60.008;30.404;2023-07-02T11:32:47;6.30;;;1.77;;
80836;SDS011;70251;60.008;30.404;2023-07-02T11:35:17;4.35;;;1.50;;
80836;SDS011;70251;60.008;30.404;2023-07-02T11:37:43;4.63;;;1.40;;
80836;SDS011;70251;60.008;30.404;2023-07-02T11:40:09;6.32;;;1.48;;
80836;SDS011;70251;60.008;30.404;2023-07-02T11:42:35;4.35;;;1.35;;
80836;SDS011;70251;60.008;30.404;2023-07-02T11:45:00;4.03;;;1.30;;
80836;SDS011;70251;60.008;30.404;2023-07-02T11:47:27;6.82;;;1.85;;
80836;SDS011;70251;60.008;30.404;2023-07-02T11:49:53;5.93;;;1.55;;
80836;SDS011;70251;60.008;30.404;2023-07-02T11:52:24;6.23;;;1.63;;
80836;SDS011;70251;60.008;30.404;2023-07-02T11:54:50;5.07;;;1.65;;
80836;SDS011;70251;60.008;30.404;2023-07-02T11:57:16;6.03;;;1.52;;
80836;SDS011;70251;60.008;30.404;2023-07-02T11:59:44;4.63;;;1.58;;
80836;SDS011;70251;60.008;30.404;2023-07-02T12:02:09;5.77;;;1.50;;
80836;SDS011;70251;60.008;30.404;2023-07-02T12:04:35;5.63;;;1.63;;
80836;SDS011;70251;60.008;30.404;2023-07-02T12:07:01;4.80;;;1.40;;
80836;SDS011;70251;60.008;30.404;2023-07-02T12:09:28;5.75;;;1.70;;
80836;SDS011;70251;60.008;30.404;2023-07-02T12:11:54;7.00;;;2.03;;
80836;SDS011;70251;60.008;30.404;2023-07-02T12:14:20;4.63;;;1.60;;
80836;SDS011;70251;60.008;30.404;2023-07-02T12:16:47;6.67;;;1.90;;
80836;SDS011;70251;60.008;30.404;2023-07-02T12:19:12;4.65;;;1.83;;
80836;SDS011;70251;60.008;30.404;2023-07-02T12:21:40;5.43;;;1.90;;
80836;SDS011;70251;60.008;30.404;2023-07-02T12:24:06;6.83;;;2.17;;
80836;SDS011;70251;60.008;30.404;2023-07-02T12:26:37;5.17;;;1.90;;
80836;SDS011;70251;60.008;30.404;2023-07-02T12:29:04;5.88;;;1.90;;
80836;SDS011;70251;60.008;30.404;2023-07-02T12:31:30;6.47;;;1.93;;
80836;SDS011;70251;60.008;30.404;2023-07-02T12:33:58;4.60;;;1.60;;
80836;SDS011;70251;60.008;30.404;2023-07-02T12:36:24;5.82;;;1.90;;
80836;SDS011;70251;60.008;30.404;2023-07-02T12:38:49;5.20;;;1.57;;
80836;SDS011;70251;60.008;30.404;2023-07-02T12:41:17;4.60;;;1.70;;
80836;SDS011;70251;60.008;30.404;2023-07-02T12:43:43;4.80;;;1.80;;
80836;SDS011;70251;60.008;30.404;2023-07-02T12:46:09;4.90;;;1.15;;
80836;SDS011;70251;60.008;30.404;2023-07-02T12:48:34;9.20;;;1.80;;
80836;SDS011;70251;60.008;30.404;2023-07-02T12:51:00;4.60;;;1.50;;
80836;SDS011;70251;60.008;30.404;2023-07-02T12:53:29;5.57;;;1.50;;
80836;SDS011;70251;60.008;30.404;2023-07-02T12:55:54;5.28;;;1.70;;
80836;SDS011;70251;60.008;30.404;2023-07-02T12:58:20;6.30;;;1.37;;
80836;SDS011;70251;60.008;30.404;2023-07-02T13:00:46;4.68;;;1.40;;
80836;SDS011;70251;60.008;30.404;2023-07-02T13:03:12;5.95;;;1.60;;
80836;SDS011;70251;60.008;30.404;2023-07-02T13:05:38;4.88;;;1.70;;
80836;SDS011;70251;60.008;30.404;2023-07-02T13:08:05;5.20;;;1.40;;
80836;SDS011;70251;60.008;30.404;2023-07-02T13:10:31;5.25;;;1.60;;
80836;SDS011;70251;60.008;30.404;2023-07-02T13:12:57;6.13;;;1.65;;
80836;SDS011;70251;60.008;30.404;2023-07-02T13:15:23;4.70;;;1.60;;
80836;SDS011;70251;60.008;30.404;2023-07-02T13:17:48;5.90;;;1.60;;
80836;SDS011;70251;60.008;30.404;2023-07-02T13:20:14;4.67;;;1.43;;
80836;SDS011;70251;60.008;30.404;2023-07-02T13:22:39;6.90;;;1.77;;
80836;SDS011;70251;60.008;30.404;2023-07-02T13:25:05;4.57;;;1.80;;
80836;SDS011;70251;60.008;30.404;2023-07-02T13:27:35;6.05;;;1.30;;
80836;SDS011;70251;60.008;30.404;2023-07-02T13:30:01;7.00;;;1.90;;
80836;SDS011;70251;60.008;30.404;2023-07-02T13:32:30;4.25;;;1.60;;
80836;SDS011;70251;60.008;30.404;2023-07-02T13:34:56;6.57;;;1.88;;
80836;SDS011;70251;60.008;30.404;2023-07-02T13:37:21;4.23;;;1.87;;
80836;SDS011;70251;60.008;30.404;2023-07-02T13:39:47;5.43;;;1.90;;
80836;SDS011;70251;60.008;30.404;2023-07-02T13:42:13;4.97;;;1.70;;
80836;SDS011;70251;60.008;30.404;2023-07-02T13:44:39;4.90;;;1.90;;
80836;SDS011;70251;60.008;30.404;2023-07-02T13:47:05;4.72;;;1.80;;
80836;SDS011;70251;60.008;30.404;2023-07-02T13:49:31;7.43;;;1.60;;
80836;SDS011;70251;60.008;30.404;2023-07-02T13:51:59;4.47;;;1.70;;
80836;SDS011;70251;60.008;30.404;2023-07-02T13:54:24;6.55;;;2.00;;
80836;SDS011;70251;60.008;30.404;2023-07-02T13:56:53;7.60;;;2.10;;
80836;SDS011;70251;60.008;30.404;2023-07-02T13:59:20;7.90;;;2.40;;
80836;SDS011;70251;60.008;30.404;2023-07-02T14:01:46;6.00;;;2.10;;
80836;SDS011;70251;60.008;30.404;2023-07-02T14:04:13;5.75;;;2.10;;
80836;SDS011;70251;60.008;30.404;2023-07-02T14:06:40;7.03;;;2.47;;
80836;SDS011;70251;60.008;30.404;2023-07-02T14:09:05;4.93;;;2.07;;
80836;SDS011;70251;60.008;30.404;2023-07-02T14:11:38;6.20;;;2.00;;
80836;SDS011;70251;60.008;30.404;2023-07-02T14:14:05;8.15;;;2.10;;
80836;SDS011;70251;60.008;30.404;2023-07-02T14:16:31;6.75;;;2.10;;
80836;SDS011;70251;60.008;30.404;2023-07-02T14:18:57;5.00;;;1.77;;
80836;SDS011;70251;60.008;30.404;2023-07-02T14:21:22;5.63;;;1.97;;
80836;SDS011;70251;60.008;30.404;2023-07-02T14:23:48;5.43;;;1.70;;
80836;SDS011;70251;60.008;30.404;2023-07-02T14:26:14;5.33;;;2.07;;
80836;SDS011;70251;60.008;30.404;2023-07-02T14:28:40;7.70;;;2.15;;
80836;SDS011;70251;60.008;30.404;2023-07-02T14:31:06;6.40;;;1.87;;
80836;SDS011;70251;60.008;30.404;2023-07-02T14:33:32;7.30;;;2.20;;
80836;SDS011;70251;60.008;30.404;2023-07-02T14:36:00;5.95;;;2.28;;
80836;SDS011;70251;60.008;30.404;2023-07-02T14:38:26;6.65;;;1.80;;